createdAt,value
2023-04-22T00:03:48.761Z,57.81
2023-04-22T00:13:50.946Z,60.21
2023-04-22T00:23:53.086Z,60.32
2023-04-22T00:33:55.159Z,59.25
2023-04-22T00:43:57.340Z,59.02
2023-04-22T00:54:01.848Z,58.97
2023-04-22T01:04:04.624Z,57.62
2023-04-22T01:14:06.803Z,58.17
2023-04-22T01:24:09.448Z,58.18
2023-04-22T01:34:12.434Z,58.03
2023-04-22T01:44:14.960Z,58.77
2023-04-22T01:54:17.088Z,58.62
2023-04-22T02:04:19.259Z,59.32
2023-04-22T02:14:21.401Z,56.93
2023-04-22T02:24:23.549Z,55.38
2023-04-22T02:34:26.828Z,56.86
2023-04-22T02:44:29.749Z,55.24
2023-04-22T02:54:31.797Z,55.25
2023-04-22T03:04:33.892Z,55.39
2023-04-22T03:14:35.999Z,53.71
2023-04-22T03:24:38.221Z,53.01
2023-04-22T03:34:43.800Z,53.34
2023-04-22T03:44:46.587Z,53.52
2023-04-22T03:54:51.083Z,51.84
2023-04-22T04:04:53.753Z,52.71
2023-04-22T04:14:56.820Z,50.44
2023-04-22T04:25:01.769Z,50.01
2023-04-22T04:35:12.879Z,50.30
2023-04-22T04:45:17.618Z,50.89
2023-04-22T04:55:21.128Z,50.55
2023-04-22T05:05:24.547Z,50.49
2023-04-22T05:15:27.411Z,49.51
2023-04-22T05:25:29.751Z,50.00
2023-04-22T05:35:38.729Z,49.97
2023-04-22T05:45:43.103Z,49.66
2023-04-22T05:55:47.972Z,50.03
2023-04-22T06:05:50.504Z,49.07
2023-04-22T06:15:55.609Z,47.04
2023-04-22T06:25:58.538Z,45.61
2023-04-22T06:36:00.792Z,45.62
2023-04-22T06:46:04.492Z,46.32
2023-04-22T06:56:18.943Z,45.78
2023-04-22T07:06:21.188Z,45.21
2023-04-22T07:16:24.078Z,45.55
2023-04-22T07:26:26.167Z,44.44
2023-04-22T07:36:28.693Z,43.16
2023-04-22T07:46:30.944Z,42.34
2023-04-22T07:56:34.061Z,42.07
2023-04-22T08:06:36.142Z,40.77
2023-04-22T08:16:39.460Z,40.49
2023-04-22T08:26:42.058Z,37.50
2023-04-22T08:36:44.132Z,37.51
2023-04-22T08:46:47.110Z,36.87
2023-04-22T08:56:50.476Z,37.58
2023-04-22T09:06:52.783Z,36.62
2023-04-22T09:16:58.090Z,36.28
2023-04-22T09:27:02.554Z,36.19
2023-04-22T09:37:05.706Z,36.55
2023-04-22T09:47:09.129Z,36.00
2023-04-22T09:57:15.111Z,35.31
2023-04-22T10:07:17.901Z,35.63
2023-04-22T10:17:21.469Z,35.76
2023-04-22T10:27:24.653Z,34.63
2023-04-22T10:37:27.133Z,33.60
2023-04-22T10:47:32.237Z,33.63
2023-04-22T10:57:43.572Z,32.75
2023-04-22T11:07:47.857Z,32.39
2023-04-22T11:17:54.826Z,32.35
2023-04-22T11:27:57.507Z,33.60
2023-04-22T11:38:02.628Z,32.62
2023-04-22T11:48:06.476Z,33.54
2023-04-22T11:58:14.638Z,33.08
2023-04-22T12:08:18.655Z,32.65
2023-04-22T12:18:33.030Z,31.78
2023-04-22T12:28:36.388Z,31.76
2023-04-22T12:38:38.973Z,31.93
2023-04-22T12:48:42.632Z,31.46
2023-04-22T12:58:44.791Z,33.57
2023-04-22T13:08:46.935Z,32.74
2023-04-22T13:18:49.225Z,31.64
2023-04-22T13:28:51.386Z,32.27
2023-04-22T13:38:53.581Z,30.89
2023-04-22T13:48:56.685Z,31.17
2023-04-22T13:58:59.129Z,32.03
2023-04-22T14:09:01.273Z,32.59
2023-04-22T14:19:03.382Z,33.32
2023-04-22T14:29:05.763Z,33.60
2023-04-22T14:39:07.826Z,36.20
2023-04-22T14:49:09.918Z,50.10
2023-04-22T14:59:11.992Z,55.36
2023-04-22T15:09:14.441Z,56.03
2023-04-22T15:19:16.510Z,55.51
2023-04-22T15:29:18.833Z,55.13
2023-04-22T15:39:21.186Z,56.47
2023-04-22T15:49:24.234Z,56.76
2023-04-22T15:59:26.282Z,56.23
2023-04-22T16:09:28.478Z,56.29
2023-04-22T16:19:30.665Z,56.23
2023-04-22T16:29:32.751Z,57.90
2023-04-22T16:39:35.145Z,54.53
2023-04-22T16:49:37.240Z,53.44
2023-04-22T16:59:39.485Z,54.82
2023-04-22T17:09:42.248Z,54.75
2023-04-22T17:19:44.856Z,55.77
2023-04-22T17:29:47.021Z,54.54
2023-04-22T17:39:49.082Z,54.27
2023-04-22T17:49:51.192Z,55.35
2023-04-22T17:59:53.358Z,57.63
2023-04-22T18:09:55.518Z,58.88
2023-04-22T18:20:09.818Z,60.61
2023-04-22T18:30:19.264Z,61.12
2023-04-22T18:40:22.429Z,61.44
2023-04-22T18:50:24.512Z,61.82
2023-04-22T19:00:27.633Z,61.82
2023-04-22T19:10:29.968Z,61.81
2023-04-22T19:20:32.314Z,62.11
2023-04-22T19:30:34.540Z,64.91
2023-04-22T19:40:36.964Z,64.26
2023-04-22T19:50:40.504Z,62.18
2023-04-22T20:00:43.612Z,62.98
2023-04-22T20:10:46.631Z,62.32
2023-04-22T20:20:49.016Z,62.47
2023-04-22T20:30:51.383Z,68.56
2023-04-22T20:40:53.581Z,67.03
2023-04-22T20:50:55.842Z,66.11
2023-04-22T21:00:57.967Z,64.56
2023-04-22T21:11:00.433Z,67.40
2023-04-22T21:21:03.989Z,67.97
2023-04-22T21:31:06.636Z,66.25
2023-04-22T21:41:08.824Z,65.93
2023-04-22T21:51:10.875Z,66.38
2023-04-22T22:01:12.957Z,66.72
2023-04-22T22:11:27.562Z,66.17
2023-04-22T22:21:33.190Z,65.63
2023-04-22T22:31:35.450Z,65.34
2023-04-22T22:41:37.612Z,63.87
2023-04-22T22:51:39.742Z,64.37
2023-04-22T23:01:41.853Z,62.28
2023-04-22T23:11:44.229Z,61.79
2023-04-22T23:21:46.724Z,60.72
2023-04-22T23:31:50.770Z,61.20
2023-04-22T23:41:52.818Z,60.37
2023-04-22T23:51:55.617Z,60.21
